Archival Weather

Luke Afb

Glendale, Arizona (KLUF)

Report from: Friday, April 19, 2024 11:55 PM MST
Current time: Monday, June 24, 2024 2:46 AM MST

Current weather – Weather history – Daily summaries
Weather forecast

Temperature26.8°C (80.2°F)
Heat index26.0°C (78.9°F)
Dew point-3.9°C (25.0°F)
Winds 7 kts (3.6 m/s, 8.1 mph) South (190°)
Visibility10 mi. (16.1 km)
Clouds Sky clear
Altimeter29.80 in.Hg (1009 mB)
Relative humidity13 %
Density altitude1,625 ft. (495 m)
Sea-level pressure100.8 kPa (1008 mB, 29.76 in.Hg)
Max temp last 24 hours33.2°C (91.8°F)
Min temp last 24 hours14.8°C (58.6°F)
Remarks Fully automated report
System requires maintenance
Automated weather observing station with precipitation discriminator
Flight conditions Visual Meteorological Conditions
Raw dataKLUF 200655Z AUTO 19007KT 10SM CLR 27/M04 A2980 RMK AO2 SLP077 T02681039 403320148 $
An error has occurred. This application may no longer respond until reloaded. Reload 🗙